sensor_id;sensor_type;location;lat;lon;timestamp;pressure;altitude;pressure_sealevel;temperature;humidity
16525;BME280;8375;33.594;-117.718;2023-04-24T00:00:20;99648.13;;;19.73;61.69
16525;BME280;8375;33.594;-117.718;2023-04-24T00:02:49;99647.69;;;19.91;61.14
16525;BME280;8375;33.594;-117.718;2023-04-24T00:05:18;99642.25;;;20.00;61.42
16525;BME280;8375;33.594;-117.718;2023-04-24T00:07:47;99650.47;;;19.61;62.10
16525;BME280;8375;33.594;-117.718;2023-04-24T00:10:20;99653.66;;;19.57;62.30
16525;BME280;8375;33.594;-117.718;2023-04-24T00:12:49;99649.50;;;19.69;61.96
16525;BME280;8375;33.594;-117.718;2023-04-24T00:15:18;99650.50;;;19.90;61.47
16525;BME280;8375;33.594;-117.718;2023-04-24T00:17:46;99646.47;;;19.94;61.44
16525;BME280;8375;33.594;-117.718;2023-04-24T00:20:15;99643.91;;;19.79;61.58
16525;BME280;8375;33.594;-117.718;2023-04-24T00:22:45;99648.41;;;19.57;62.36
16525;BME280;8375;33.594;-117.718;2023-04-24T00:25:14;99647.63;;;19.63;62.35
16525;BME280;8375;33.594;-117.718;2023-04-24T00:27:44;99641.03;;;19.74;62.42
16525;BME280;8375;33.594;-117.718;2023-04-24T00:30:13;99640.91;;;19.82;61.97
16525;BME280;8375;33.594;-117.718;2023-04-24T00:32:41;99642.06;;;19.73;62.20
16525;BME280;8375;33.594;-117.718;2023-04-24T00:35:10;99645.53;;;19.52;62.69
16525;BME280;8375;33.594;-117.718;2023-04-24T00:37:39;99639.75;;;19.63;62.95
16525;BME280;8375;33.594;-117.718;2023-04-24T00:40:09;99650.75;;;19.73;62.86
16525;BME280;8375;33.594;-117.718;2023-04-24T00:42:38;99642.28;;;19.78;62.35
16525;BME280;8375;33.594;-117.718;2023-04-24T00:45:09;99635.47;;;19.62;62.25
16525;BME280;8375;33.594;-117.718;2023-04-24T00:47:39;99643.84;;;19.44;63.48
16525;BME280;8375;33.594;-117.718;2023-04-24T00:50:08;99646.03;;;19.18;64.27
16525;BME280;8375;33.594;-117.718;2023-04-24T00:52:37;99653.81;;;19.05;64.61
16525;BME280;8375;33.594;-117.718;2023-04-24T00:55:07;99635.53;;;18.97;65.34
16525;BME280;8375;33.594;-117.718;2023-04-24T00:57:37;99645.53;;;19.08;64.98
16525;BME280;8375;33.594;-117.718;2023-04-24T01:00:08;99643.31;;;18.90;64.91
16525;BME280;8375;33.594;-117.718;2023-04-24T01:02:39;99638.19;;;18.82;66.05
16525;BME280;8375;33.594;-117.718;2023-04-24T01:05:11;99648.13;;;18.86;66.08
16525;BME280;8375;33.594;-117.718;2023-04-24T01:07:42;99648.03;;;18.43;67.43
16525;BME280;8375;33.594;-117.718;2023-04-24T01:10:13;99641.63;;;18.30;68.23
16525;BME280;8375;33.594;-117.718;2023-04-24T01:12:43;99642.31;;;17.94;69.42
16525;BME280;8375;33.594;-117.718;2023-04-24T01:15:14;99631.78;;;17.79;70.66
16525;BME280;8375;33.594;-117.718;2023-04-24T01:17:42;99642.03;;;17.89;70.38
16525;BME280;8375;33.594;-117.718;2023-04-24T01:20:11;99639.69;;;17.94;70.28
16525;BME280;8375;33.594;-117.718;2023-04-24T01:22:43;99637.63;;;18.05;69.54
16525;BME280;8375;33.594;-117.718;2023-04-24T01:25:12;99635.50;;;17.85;70.41
16525;BME280;8375;33.594;-117.718;2023-04-24T01:27:41;99634.59;;;17.78;70.51
16525;BME280;8375;33.594;-117.718;2023-04-24T01:30:10;99638.66;;;17.65;71.92
16525;BME280;8375;33.594;-117.718;2023-04-24T01:32:40;99649.72;;;17.76;71.24
16525;BME280;8375;33.594;-117.718;2023-04-24T01:35:11;99643.63;;;17.75;71.20
16525;BME280;8375;33.594;-117.718;2023-04-24T01:37:39;99647.34;;;17.81;70.84
16525;BME280;8375;33.594;-117.718;2023-04-24T01:40:10;99643.09;;;17.80;71.00
16525;BME280;8375;33.594;-117.718;2023-04-24T01:42:41;99638.13;;;17.85;71.18
16525;BME280;8375;33.594;-117.718;2023-04-24T01:45:11;99644.53;;;17.82;71.02
16525;BME280;8375;33.594;-117.718;2023-04-24T01:47:40;99637.59;;;17.51;71.92
16525;BME280;8375;33.594;-117.718;2023-04-24T01:50:10;99641.75;;;17.45;72.63
16525;BME280;8375;33.594;-117.718;2023-04-24T01:52:39;99637.22;;;17.39;73.21
16525;BME280;8375;33.594;-117.718;2023-04-24T01:55:10;99641.53;;;17.32;73.02
16525;BME280;8375;33.594;-117.718;2023-04-24T01:57:39;99642.06;;;17.27;73.52
16525;BME280;8375;33.594;-117.718;2023-04-24T02:00:10;99657.41;;;17.15;73.72
16525;BME280;8375;33.594;-117.718;2023-04-24T02:02:40;99641.06;;;17.05;74.33
16525;BME280;8375;33.594;-117.718;2023-04-24T02:05:09;99643.56;;;16.98;74.72
16525;BME280;8375;33.594;-117.718;2023-04-24T02:07:37;99648.75;;;16.75;75.71
16525;BME280;8375;33.594;-117.718;2023-04-24T02:10:07;99645.84;;;16.70;76.01
16525;BME280;8375;33.594;-117.718;2023-04-24T02:12:37;99642.88;;;16.73;76.39
16525;BME280;8375;33.594;-117.718;2023-04-24T02:15:07;99640.75;;;16.68;76.70
16525;BME280;8375;33.594;-117.718;2023-04-24T02:17:35;99644.25;;;16.61;76.89
16525;BME280;8375;33.594;-117.718;2023-04-24T02:20:05;99653.78;;;16.53;77.38
16525;BME280;8375;33.594;-117.718;2023-04-24T02:22:34;99654.13;;;16.50;77.59
16525;BME280;8375;33.594;-117.718;2023-04-24T02:25:03;99660.38;;;16.41;77.94
16525;BME280;8375;33.594;-117.718;2023-04-24T02:27:32;99664.38;;;16.20;79.06
16525;BME280;8375;33.594;-117.718;2023-04-24T02:30:02;99657.66;;;16.18;79.05
16525;BME280;8375;33.594;-117.718;2023-04-24T02:32:31;99666.66;;;16.15;79.46
16525;BME280;8375;33.594;-117.718;2023-04-24T02:35:00;99669.78;;;16.02;80.10
16525;BME280;8375;33.594;-117.718;2023-04-24T02:37:29;99680.28;;;15.94;80.48
16525;BME280;8375;33.594;-117.718;2023-04-24T02:39:57;99681.91;;;15.95;80.97
16525;BME280;8375;33.594;-117.718;2023-04-24T02:42:26;99680.13;;;15.95;81.06
16525;BME280;8375;33.594;-117.718;2023-04-24T02:44:54;99683.38;;;15.97;80.95
16525;BME280;8375;33.594;-117.718;2023-04-24T02:47:25;99693.53;;;15.92;81.29
16525;BME280;8375;33.594;-117.718;2023-04-24T02:49:54;99703.50;;;15.89;81.51
16525;BME280;8375;33.594;-117.718;2023-04-24T02:52:22;99699.38;;;15.86;82.12
16525;BME280;8375;33.594;-117.718;2023-04-24T02:54:51;99708.88;;;15.87;82.28
16525;BME280;8375;33.594;-117.718;2023-04-24T02:57:20;99711.47;;;15.79;82.50
16525;BME280;8375;33.594;-117.718;2023-04-24T02:59:49;99713.94;;;15.64;83.37
16525;BME280;8375;33.594;-117.718;2023-04-24T03:02:18;99720.16;;;15.63;83.52
16525;BME280;8375;33.594;-117.718;2023-04-24T03:04:49;99721.63;;;15.57;84.12
16525;BME280;8375;33.594;-117.718;2023-04-24T03:07:18;99724.72;;;15.52;84.36
16525;BME280;8375;33.594;-117.718;2023-04-24T03:09:47;99731.91;;;15.50;84.75
16525;BME280;8375;33.594;-117.718;2023-04-24T03:12:15;99723.53;;;15.30;85.73
16525;BME280;8375;33.594;-117.718;2023-04-24T03:14:44;99732.97;;;15.15;87.22
16525;BME280;8375;33.594;-117.718;2023-04-24T03:17:13;99745.38;;;15.13;87.71
16525;BME280;8375;33.594;-117.718;2023-04-24T03:19:42;99750.31;;;15.16;87.57
16525;BME280;8375;33.594;-117.718;2023-04-24T03:22:12;99744.75;;;15.19;87.48
16525;BME280;8375;33.594;-117.718;2023-04-24T03:24:41;99753.75;;;15.16;88.11
16525;BME280;8375;33.594;-117.718;2023-04-24T03:27:10;99758.91;;;15.00;88.64
16525;BME280;8375;33.594;-117.718;2023-04-24T03:29:38;99754.63;;;14.90;89.02
16525;BME280;8375;33.594;-117.718;2023-04-24T03:32:07;99760.00;;;14.89;89.77
16525;BME280;8375;33.594;-117.718;2023-04-24T03:34:36;99769.16;;;14.93;90.14
16525;BME280;8375;33.594;-117.718;2023-04-24T03:37:04;99771.78;;;14.93;89.96
16525;BME280;8375;33.594;-117.718;2023-04-24T03:39:34;99771.13;;;14.91;90.04
16525;BME280;8375;33.594;-117.718;2023-04-24T03:42:03;99778.34;;;14.97;90.16
16525;BME280;8375;33.594;-117.718;2023-04-24T03:44:32;99771.16;;;14.99;89.79
16525;BME280;8375;33.594;-117.718;2023-04-24T03:47:01;99781.28;;;15.02;89.88
16525;BME280;8375;33.594;-117.718;2023-04-24T03:49:30;99783.88;;;14.94;89.42
16525;BME280;8375;33.594;-117.718;2023-04-24T03:51:59;99780.53;;;14.75;90.46
16525;BME280;8375;33.594;-117.718;2023-04-24T03:54:27;99783.78;;;14.77;90.38
16525;BME280;8375;33.594;-117.718;2023-04-24T03:56:58;99784.78;;;14.76;91.22
16525;BME280;8375;33.594;-117.718;2023-04-24T03:59:27;99791.56;;;14.69;91.14
16525;BME280;8375;33.594;-117.718;2023-04-24T04:01:56;99793.00;;;14.63;91.16
16525;BME280;8375;33.594;-117.718;2023-04-24T04:04:25;99786.34;;;14.69;91.87
16525;BME280;8375;33.594;-117.718;2023-04-24T04:06:54;99798.06;;;14.65;91.95
16525;BME280;8375;33.594;-117.718;2023-04-24T04:09:22;99797.56;;;14.61;92.04
16525;BME280;8375;33.594;-117.718;2023-04-24T04:11:51;99789.22;;;14.58;92.71
16525;BME280;8375;33.594;-117.718;2023-04-24T04:14:21;99785.75;;;14.49;92.84
16525;BME280;8375;33.594;-117.718;2023-04-24T04:16:50;99794.84;;;14.45;94.14
16525;BME280;8375;33.594;-117.718;2023-04-24T04:19:19;99797.47;;;14.45;93.93
16525;BME280;8375;33.594;-117.718;2023-04-24T04:21:48;99794.03;;;14.44;93.66
16525;BME280;8375;33.594;-117.718;2023-04-24T04:24:20;99791.47;;;14.52;93.68
16525;BME280;8375;33.594;-117.718;2023-04-24T04:26:49;99800.28;;;14.51;93.25
16525;BME280;8375;33.594;-117.718;2023-04-24T04:29:17;99792.13;;;14.55;93.08
16525;BME280;8375;33.594;-117.718;2023-04-24T04:31:48;99794.94;;;14.35;94.81
16525;BME280;8375;33.594;-117.718;2023-04-24T04:34:17;99797.44;;;14.18;96.05
16525;BME280;8375;33.594;-117.718;2023-04-24T04:36:46;99797.00;;;14.05;96.63
16525;BME280;8375;33.594;-117.718;2023-04-24T04:39:14;99797.91;;;13.96;97.71
16525;BME280;8375;33.594;-117.718;2023-04-24T04:41:45;99803.59;;;13.91;98.52
16525;BME280;8375;33.594;-117.718;2023-04-24T04:44:15;99806.03;;;13.92;98.83
16525;BME280;8375;33.594;-117.718;2023-04-24T04:46:44;99812.00;;;13.85;99.34
16525;BME280;8375;33.594;-117.718;2023-04-24T04:49:14;99812.06;;;13.75;100.00
16525;BME280;8375;33.594;-117.718;2023-04-24T04:51:43;99813.69;;;13.76;99.96
16525;BME280;8375;33.594;-117.718;2023-04-24T04:54:12;99802.59;;;13.74;99.83
16525;BME280;8375;33.594;-117.718;2023-04-24T04:56:41;99804.22;;;13.75;99.61
16525;BME280;8375;33.594;-117.718;2023-04-24T04:59:10;99805.28;;;13.82;99.30
16525;BME280;8375;33.594;-117.718;2023-04-24T05:01:39;99808.25;;;13.87;98.91
16525;BME280;8375;33.594;-117.718;2023-04-24T05:04:08;99806.31;;;13.89;98.60
16525;BME280;8375;33.594;-117.718;2023-04-24T05:06:38;99810.94;;;13.96;98.67
16525;BME280;8375;33.594;-117.718;2023-04-24T05:09:07;99812.59;;;13.97;98.05
16525;BME280;8375;33.594;-117.718;2023-04-24T05:11:36;99801.91;;;14.08;98.05
16525;BME280;8375;33.594;-117.718;2023-04-24T05:14:04;99807.19;;;14.16;97.35
16525;BME280;8375;33.594;-117.718;2023-04-24T05:16:33;99805.63;;;14.23;96.34
16525;BME280;8375;33.594;-117.718;2023-04-24T05:19:03;99813.69;;;14.12;96.11
16525;BME280;8375;33.594;-117.718;2023-04-24T05:21:32;99811.56;;;14.07;96.59
16525;BME280;8375;33.594;-117.718;2023-04-24T05:24:02;99806.31;;;13.89;97.87
16525;BME280;8375;33.594;-117.718;2023-04-24T05:26:31;99808.56;;;13.84;98.45
16525;BME280;8375;33.594;-117.718;2023-04-24T05:29:00;99808.13;;;13.89;98.99
16525;BME280;8375;33.594;-117.718;2023-04-24T05:31:29;99809.59;;;13.91;98.47
16525;BME280;8375;33.594;-117.718;2023-04-24T05:33:58;99807.16;;;13.90;98.26
16525;BME280;8375;33.594;-117.718;2023-04-24T05:36:26;99814.31;;;13.88;99.04
16525;BME280;8375;33.594;-117.718;2023-04-24T05:38:55;99813.19;;;13.90;98.39
16525;BME280;8375;33.594;-117.718;2023-04-24T05:41:26;99813.19;;;13.90;98.10
16525;BME280;8375;33.594;-117.718;2023-04-24T05:43:55;99814.16;;;13.89;98.06
16525;BME280;8375;33.594;-117.718;2023-04-24T05:46:23;99812.22;;;13.91;97.61
16525;BME280;8375;33.594;-117.718;2023-04-24T05:48:52;99808.81;;;13.91;97.73
16525;BME280;8375;33.594;-117.718;2023-04-24T05:51:21;99809.16;;;13.96;97.15
16525;BME280;8375;33.594;-117.718;2023-04-24T05:53:49;99816.75;;;13.89;97.44
16525;BME280;8375;33.594;-117.718;2023-04-24T05:56:18;99819.06;;;13.92;97.37
16525;BME280;8375;33.594;-117.718;2023-04-24T05:58:49;99818.03;;;13.85;97.53
16525;BME280;8375;33.594;-117.718;2023-04-24T06:01:17;99818.69;;;13.69;97.96
16525;BME280;8375;33.594;-117.718;2023-04-24T06:03:46;99813.69;;;13.76;98.67
16525;BME280;8375;33.594;-117.718;2023-04-24T06:06:15;99804.59;;;13.80;98.45
16525;BME280;8375;33.594;-117.718;2023-04-24T06:08:44;99803.03;;;13.87;97.99
16525;BME280;8375;33.594;-117.718;2023-04-24T06:11:12;99808.34;;;13.96;97.80
16525;BME280;8375;33.594;-117.718;2023-04-24T06:13:41;99808.28;;;14.05;96.76
16525;BME280;8375;33.594;-117.718;2023-04-24T06:16:12;99809.13;;;14.14;95.37
16525;BME280;8375;33.594;-117.718;2023-04-24T06:18:40;99802.75;;;14.08;93.78
16525;BME280;8375;33.594;-117.718;2023-04-24T06:21:10;99803.91;;;14.14;94.18
16525;BME280;8375;33.594;-117.718;2023-04-24T06:23:38;99798.34;;;14.09;93.54
16525;BME280;8375;33.594;-117.718;2023-04-24T06:26:08;99794.69;;;14.02;93.68
16525;BME280;8375;33.594;-117.718;2023-04-24T06:28:37;99801.28;;;13.88;94.28
16525;BME280;8375;33.594;-117.718;2023-04-24T06:31:05;99805.56;;;13.79;94.91
16525;BME280;8375;33.594;-117.718;2023-04-24T06:33:36;99806.47;;;13.70;95.29
16525;BME280;8375;33.594;-117.718;2023-04-24T06:36:05;99806.75;;;13.67;96.70
16525;BME280;8375;33.594;-117.718;2023-04-24T06:38:34;99801.78;;;13.73;96.58
16525;BME280;8375;33.594;-117.718;2023-04-24T06:41:03;99814.97;;;13.72;95.90
16525;BME280;8375;33.594;-117.718;2023-04-24T06:43:32;99816.31;;;13.76;96.46
16525;BME280;8375;33.594;-117.718;2023-04-24T06:46:01;99812.72;;;13.77;96.01
16525;BME280;8375;33.594;-117.718;2023-04-24T06:48:30;99812.94;;;13.66;96.90
16525;BME280;8375;33.594;-117.718;2023-04-24T06:51:00;99803.78;;;13.61;96.98
16525;BME280;8375;33.594;-117.718;2023-04-24T06:53:29;99814.72;;;13.47;97.48
16525;BME280;8375;33.594;-117.718;2023-04-24T06:55:57;99815.84;;;13.34;98.25
16525;BME280;8375;33.594;-117.718;2023-04-24T06:58:26;99815.03;;;13.34;99.13
16525;BME280;8375;33.594;-117.718;2023-04-24T07:00:55;99812.28;;;13.35;99.31
16525;BME280;8375;33.594;-117.718;2023-04-24T07:03:24;99826.41;;;13.43;99.90
16525;BME280;8375;33.594;-117.718;2023-04-24T07:05:54;99834.47;;;13.49;100.00
16525;BME280;8375;33.594;-117.718;2023-04-24T07:08:26;99839.13;;;13.46;99.60
16525;BME280;8375;33.594;-117.718;2023-04-24T07:10:54;99839.31;;;13.62;99.24
16525;BME280;8375;33.594;-117.718;2023-04-24T07:13:23;99833.13;;;13.63;99.25
16525;BME280;8375;33.594;-117.718;2023-04-24T07:15:54;99829.13;;;13.69;98.87
16525;BME280;8375;33.594;-117.718;2023-04-24T07:18:22;99827.03;;;13.73;98.88
16525;BME280;8375;33.594;-117.718;2023-04-24T07:20:51;99827.13;;;13.81;98.66
16525;BME280;8375;33.594;-117.718;2023-04-24T07:23:20;99821.53;;;13.76;97.69
16525;BME280;8375;33.594;-117.718;2023-04-24T07:25:50;99814.59;;;13.67;97.57
16525;BME280;8375;33.594;-117.718;2023-04-24T07:28:19;99823.91;;;13.69;99.12
16525;BME280;8375;33.594;-117.718;2023-04-24T07:30:48;99833.59;;;13.77;99.46
16525;BME280;8375;33.594;-117.718;2023-04-24T07:33:16;99834.50;;;13.86;99.44
16525;BME280;8375;33.594;-117.718;2023-04-24T07:35:45;99836.66;;;13.90;98.56
16525;BME280;8375;33.594;-117.718;2023-04-24T07:38:14;99831.16;;;13.93;99.12
16525;BME280;8375;33.594;-117.718;2023-04-24T07:40:42;99829.06;;;13.97;99.19
16525;BME280;8375;33.594;-117.718;2023-04-24T07:43:13;99829.75;;;13.99;98.69
16525;BME280;8375;33.594;-117.718;2023-04-24T07:45:42;99825.72;;;13.87;98.59
16525;BME280;8375;33.594;-117.718;2023-04-24T07:48:10;99821.53;;;13.76;99.69
16525;BME280;8375;33.594;-117.718;2023-04-24T07:50:41;99822.13;;;13.70;99.69
16525;BME280;8375;33.594;-117.718;2023-04-24T07:53:10;99827.03;;;13.73;100.00
16525;BME280;8375;33.594;-117.718;2023-04-24T07:55:38;99831.66;;;13.79;100.00
16525;BME280;8375;33.594;-117.718;2023-04-24T07:58:07;99823.53;;;13.64;99.92
16525;BME280;8375;33.594;-117.718;2023-04-24T08:00:37;99829.06;;;13.61;100.00
16525;BME280;8375;33.594;-117.718;2023-04-24T08:03:06;99825.31;;;13.63;100.00
16525;BME280;8375;33.594;-117.718;2023-04-24T08:05:35;99826.53;;;13.69;100.00
16525;BME280;8375;33.594;-117.718;2023-04-24T08:08:03;99825.84;;;13.67;100.00
16525;BME280;8375;33.594;-117.718;2023-04-24T08:10:32;99821.53;;;13.76;100.00
16525;BME280;8375;33.594;-117.718;2023-04-24T08:13:01;99816.53;;;13.64;100.00
16525;BME280;8375;33.594;-117.718;2023-04-24T08:15:30;99816.13;;;13.59;100.00
16525;BME280;8375;33.594;-117.718;2023-04-24T08:18:00;99813.31;;;13.53;100.00
16525;BME280;8375;33.594;-117.718;2023-04-24T08:20:29;99812.94;;;13.47;100.00
16525;BME280;8375;33.594;-117.718;2023-04-24T08:22:57;99812.13;;;13.37;100.00
16525;BME280;8375;33.594;-117.718;2023-04-24T08:25:26;99815.63;;;13.28;100.00
16525;BME280;8375;33.594;-117.718;2023-04-24T08:27:55;99815.19;;;13.23;100.00
16525;BME280;8375;33.594;-117.718;2023-04-24T08:30:23;99818.63;;;13.33;100.00
16525;BME280;8375;33.594;-117.718;2023-04-24T08:32:52;99822.28;;;13.40;100.00
16525;BME280;8375;33.594;-117.718;2023-04-24T08:35:22;99827.91;;;13.45;100.00
16525;BME280;8375;33.594;-117.718;2023-04-24T08:37:52;99814.78;;;13.55;100.00
16525;BME280;8375;33.594;-117.718;2023-04-24T08:40:26;99818.63;;;13.61;100.00
16525;BME280;8375;33.594;-117.718;2023-04-24T08:42:56;99818.91;;;13.58;100.00
16525;BME280;8375;33.594;-117.718;2023-04-24T08:45:25;99821.06;;;13.62;100.00
16525;BME280;8375;33.594;-117.718;2023-04-24T08:47:53;99829.13;;;13.69;100.00
16525;BME280;8375;33.594;-117.718;2023-04-24T08:50:24;99825.09;;;13.75;100.00
16525;BME280;8375;33.594;-117.718;2023-04-24T08:52:53;99819.38;;;13.71;100.00
16525;BME280;8375;33.594;-117.718;2023-04-24T08:55:24;99816.75;;;13.71;100.00
16525;BME280;8375;33.594;-117.718;2023-04-24T08:57:53;99814.97;;;13.72;100.00
16525;BME280;8375;33.594;-117.718;2023-04-24T09:00:22;99817.16;;;13.76;100.00
16525;BME280;8375;33.594;-117.718;2023-04-24T09:02:52;99830.84;;;13.78;100.00
16525;BME280;8375;33.594;-117.718;2023-04-24T09:05:23;99822.88;;;13.80;100.00
16525;BME280;8375;33.594;-117.718;2023-04-24T09:07:54;99826.81;;;13.84;100.00
16525;BME280;8375;33.594;-117.718;2023-04-24T09:10:25;99818.19;;;13.84;100.00
16525;BME280;8375;33.594;-117.718;2023-04-24T09:12:57;99815.13;;;13.88;100.00
16525;BME280;8375;33.594;-117.718;2023-04-24T09:15:28;99813.03;;;13.92;100.00
16525;BME280;8375;33.594;-117.718;2023-04-24T09:17:57;99804.69;;;13.88;100.00
16525;BME280;8375;33.594;-117.718;2023-04-24T09:20:28;99822.56;;;13.83;100.00
16525;BME280;8375;33.594;-117.718;2023-04-24T09:22:57;99832.19;;;13.83;100.00
16525;BME280;8375;33.594;-117.718;2023-04-24T09:25:31;99822.56;;;13.83;100.00
16525;BME280;8375;33.594;-117.718;2023-04-24T09:28:01;99832.94;;;13.75;100.00
16525;BME280;8375;33.594;-117.718;2023-04-24T09:30:30;99832.25;;;13.73;100.00
16525;BME280;8375;33.594;-117.718;2023-04-24T09:33:14;99833.75;;;13.75;100.00
16525;BME280;8375;33.594;-117.718;2023-04-24T09:35:49;99829.72;;;13.81;100.00
16525;BME280;8375;33.594;-117.718;2023-04-24T09:38:19;99818.13;;;13.75;100.00
16525;BME280;8375;33.594;-117.718;2023-04-24T09:40:48;99827.72;;;13.75;100.00
16525;BME280;8375;33.594;-117.718;2023-04-24T09:43:17;99821.00;;;13.72;100.00
16525;BME280;8375;33.594;-117.718;2023-04-24T09:45:46;99827.41;;;13.78;100.00
16525;BME280;8375;33.594;-117.718;2023-04-24T09:48:15;99821.91;;;13.81;100.00
16525;BME280;8375;33.594;-117.718;2023-04-24T09:50:49;99825.84;;;13.85;100.00
16525;BME280;8375;33.594;-117.718;2023-04-24T09:53:24;99830.56;;;13.82;100.00
16525;BME280;8375;33.594;-117.718;2023-04-24T09:55:53;99823.25;;;13.85;100.00
16525;BME280;8375;33.594;-117.718;2023-04-24T09:58:25;99822.88;;;13.80;100.00
16525;BME280;8375;33.594;-117.718;2023-04-24T10:00:55;99828.47;;;13.85;100.00
16525;BME280;8375;33.594;-117.718;2023-04-24T10:03:25;99831.91;;;13.86;100.00
16525;BME280;8375;33.594;-117.718;2023-04-24T10:06:00;99831.66;;;13.79;99.09
16525;BME280;8375;33.594;-117.718;2023-04-24T10:08:36;99830.31;;;13.75;99.27
16525;BME280;8375;33.594;-117.718;2023-04-24T10:11:05;99821.06;;;13.62;99.52
16525;BME280;8375;33.594;-117.718;2023-04-24T10:13:34;99826.66;;;13.49;100.00
16525;BME280;8375;33.594;-117.718;2023-04-24T10:16:04;99832.84;;;13.39;100.00
16525;BME280;8375;33.594;-117.718;2023-04-24T10:18:32;99831.03;;;13.49;100.00
16525;BME280;8375;33.594;-117.718;2023-04-24T10:21:03;99833.50;;;13.51;100.00
16525;BME280;8375;33.594;-117.718;2023-04-24T10:23:32;99828.50;;;13.57;100.00
16525;BME280;8375;33.594;-117.718;2023-04-24T10:26:01;99832.63;;;13.60;100.00
16525;BME280;8375;33.594;-117.718;2023-04-24T10:28:31;99830.41;;;13.65;100.00
16525;BME280;8375;33.594;-117.718;2023-04-24T10:31:00;99837.38;;;13.64;100.00
16525;BME280;8375;33.594;-117.718;2023-04-24T10:33:29;99832.84;;;13.67;100.00
16525;BME280;8375;33.594;-117.718;2023-04-24T10:35:59;99837.47;;;13.73;100.00
16525;BME280;8375;33.594;-117.718;2023-04-24T10:38:30;99839.31;;;13.62;100.00
16525;BME280;8375;33.594;-117.718;2023-04-24T10:41:08;99831.50;;;13.62;100.00
16525;BME280;8375;33.594;-117.718;2023-04-24T10:43:42;99831.50;;;13.62;100.00
16525;BME280;8375;33.594;-117.718;2023-04-24T10:46:19;99841.78;;;13.64;100.00
16525;BME280;8375;33.594;-117.718;2023-04-24T10:48:53;99846.19;;;13.63;99.83
16525;BME280;8375;33.594;-117.718;2023-04-24T10:51:23;99849.94;;;13.51;99.86
16525;BME280;8375;33.594;-117.718;2023-04-24T10:53:54;99842.50;;;13.56;100.00
16525;BME280;8375;33.594;-117.718;2023-04-24T10:56:26;99846.84;;;13.66;100.00
16525;BME280;8375;33.594;-117.718;2023-04-24T10:58:55;99858.25;;;13.64;100.00
16525;BME280;8375;33.594;-117.718;2023-04-24T11:01:24;99855.34;;;13.68;100.00
16525;BME280;8375;33.594;-117.718;2023-04-24T11:03:56;99845.88;;;13.67;99.17
16525;BME280;8375;33.594;-117.718;2023-04-24T11:06:32;99842.69;;;13.73;99.60
16525;BME280;8375;33.594;-117.718;2023-04-24T11:09:07;99859.84;;;13.75;99.00
16525;BME280;8375;33.594;-117.718;2023-04-24T11:11:45;99859.38;;;13.80;99.28
16525;BME280;8375;33.594;-117.718;2023-04-24T11:14:15;99862.66;;;13.82;97.81
16525;BME280;8375;33.594;-117.718;2023-04-24T11:16:44;99860.44;;;13.87;98.89
16525;BME280;8375;33.594;-117.718;2023-04-24T11:19:22;99875.81;;;13.90;98.47
16525;BME280;8375;33.594;-117.718;2023-04-24T11:21:57;99875.13;;;13.88;97.94
16525;BME280;8375;33.594;-117.718;2023-04-24T11:24:35;99868.13;;;13.89;97.11
16525;BME280;8375;33.594;-117.718;2023-04-24T11:27:13;99869.91;;;13.88;97.29
16525;BME280;8375;33.594;-117.718;2023-04-24T11:29:46;99865.56;;;13.79;96.98
16525;BME280;8375;33.594;-117.718;2023-04-24T11:32:26;99873.41;;;13.79;97.73
16525;BME280;8375;33.594;-117.718;2023-04-24T11:34:55;99870.00;;;13.78;98.39
16525;BME280;8375;33.594;-117.718;2023-04-24T11:37:27;99864.69;;;13.70;97.61
16525;BME280;8375;33.594;-117.718;2023-04-24T11:39:58;99868.94;;;13.71;98.20
16525;BME280;8375;33.594;-117.718;2023-04-24T11:42:28;99860.81;;;13.74;98.30
16525;BME280;8375;33.594;-117.718;2023-04-24T11:44:57;99857.91;;;13.77;98.37
16525;BME280;8375;33.594;-117.718;2023-04-24T11:47:29;99845.16;;;13.74;97.66
16525;BME280;8375;33.594;-117.718;2023-04-24T11:50:00;99858.59;;;13.79;99.01
16525;BME280;8375;33.594;-117.718;2023-04-24T11:52:29;99853.56;;;13.68;98.08
16525;BME280;8375;33.594;-117.718;2023-04-24T11:55:00;99865.06;;;13.75;98.39
16525;BME280;8375;33.594;-117.718;2023-04-24T11:57:30;99860.75;;;13.56;97.10
16525;BME280;8375;33.594;-117.718;2023-04-24T12:00:00;99869.91;;;13.42;98.63
16525;BME280;8375;33.594;-117.718;2023-04-24T12:02:29;99861.50;;;13.39;99.44
16525;BME280;8375;33.594;-117.718;2023-04-24T12:04:58;99866.59;;;13.40;100.00
16525;BME280;8375;33.594;-117.718;2023-04-24T12:07:27;99854.78;;;13.46;99.94
16525;BME280;8375;33.594;-117.718;2023-04-24T12:09:59;99853.00;;;13.46;99.50
16525;BME280;8375;33.594;-117.718;2023-04-24T12:12:28;99848.31;;;13.50;100.00
16525;BME280;8375;33.594;-117.718;2023-04-24T12:14:58;99858.50;;;13.43;99.92
16525;BME280;8375;33.594;-117.718;2023-04-24T12:17:28;99867.19;;;13.34;99.46
16525;BME280;8375;33.594;-117.718;2023-04-24T12:20:01;99868.28;;;13.31;100.00
16525;BME280;8375;33.594;-117.718;2023-04-24T12:22:43;99859.78;;;13.29;100.00
16525;BME280;8375;33.594;-117.718;2023-04-24T12:25:15;99857.72;;;13.33;100.00
16525;BME280;8375;33.594;-117.718;2023-04-24T12:27:44;99857.16;;;13.29;100.00
16525;BME280;8375;33.594;-117.718;2023-04-24T12:30:15;99865.00;;;13.19;100.00
16525;BME280;8375;33.594;-117.718;2023-04-24T12:32:45;99857.63;;;13.15;100.00
16525;BME280;8375;33.594;-117.718;2023-04-24T12:35:18;99865.88;;;13.10;100.00
16525;BME280;8375;33.594;-117.718;2023-04-24T12:37:47;99876.84;;;13.04;100.00
16525;BME280;8375;33.594;-117.718;2023-04-24T12:40:18;99881.44;;;12.92;100.00
16525;BME280;8375;33.594;-117.718;2023-04-24T12:42:49;99871.53;;;12.96;100.00
16525;BME280;8375;33.594;-117.718;2023-04-24T12:45:18;99875.75;;;13.06;100.00
16525;BME280;8375;33.594;-117.718;2023-04-24T12:47:49;99883.88;;;13.03;100.00
16525;BME280;8375;33.594;-117.718;2023-04-24T12:50:18;99894.28;;;13.03;100.00